sensor_id;sensor_type;location;lat;lon;timestamp;P1;durP1;ratioP1;P2;durP2;ratioP2
2049;SDS011;8478;49.208;8.806;2024-01-07T00:01:23;11.00;;;9.90;;
2049;SDS011;8478;49.208;8.806;2024-01-07T00:03:48;9.33;;;8.50;;
2049;SDS011;8478;49.208;8.806;2024-01-07T00:06:15;10.00;;;9.17;;
2049;SDS011;8478;49.208;8.806;2024-01-07T00:08:40;10.57;;;9.67;;
2049;SDS011;8478;49.208;8.806;2024-01-07T00:11:06;10.10;;;9.10;;
2049;SDS011;8478;49.208;8.806;2024-01-07T00:13:31;10.47;;;9.57;;
2049;SDS011;8478;49.208;8.806;2024-01-07T00:15:57;9.93;;;8.97;;
2049;SDS011;8478;49.208;8.806;2024-01-07T00:18:23;10.63;;;9.70;;
2049;SDS011;8478;49.208;8.806;2024-01-07T00:20:49;10.60;;;9.60;;
2049;SDS011;8478;49.208;8.806;2024-01-07T00:23:15;10.97;;;9.90;;
2049;SDS011;8478;49.208;8.806;2024-01-07T00:25:41;9.63;;;8.83;;
2049;SDS011;8478;49.208;8.806;2024-01-07T00:28:06;10.73;;;9.73;;
2049;SDS011;8478;49.208;8.806;2024-01-07T00:30:32;9.43;;;8.53;;
2049;SDS011;8478;49.208;8.806;2024-01-07T00:32:57;9.77;;;8.93;;
2049;SDS011;8478;49.208;8.806;2024-01-07T00:35:23;10.10;;;9.10;;
2049;SDS011;8478;49.208;8.806;2024-01-07T00:37:49;10.50;;;9.50;;
2049;SDS011;8478;49.208;8.806;2024-01-07T00:40:15;10.83;;;9.83;;
2049;SDS011;8478;49.208;8.806;2024-01-07T00:42:41;10.27;;;9.17;;
2049;SDS011;8478;49.208;8.806;2024-01-07T00:45:06;11.27;;;10.13;;
2049;SDS011;8478;49.208;8.806;2024-01-07T00:47:34;9.90;;;9.10;;
2049;SDS011;8478;49.208;8.806;2024-01-07T00:49:59;10.37;;;9.37;;
2049;SDS011;8478;49.208;8.806;2024-01-07T00:52:25;10.73;;;9.70;;
2049;SDS011;8478;49.208;8.806;2024-01-07T00:54:50;10.27;;;9.30;;
2049;SDS011;8478;49.208;8.806;2024-01-07T00:57:16;11.50;;;10.40;;
2049;SDS011;8478;49.208;8.806;2024-01-07T00:59:42;10.37;;;9.40;;
2049;SDS011;8478;49.208;8.806;2024-01-07T01:02:07;10.97;;;9.80;;
2049;SDS011;8478;49.208;8.806;2024-01-07T01:04:33;10.73;;;9.67;;
2049;SDS011;8478;49.208;8.806;2024-01-07T01:06:59;11.50;;;10.50;;
2049;SDS011;8478;49.208;8.806;2024-01-07T01:09:24;11.60;;;10.43;;
2049;SDS011;8478;49.208;8.806;2024-01-07T01:11:53;11.20;;;10.20;;
2049;SDS011;8478;49.208;8.806;2024-01-07T01:14:18;12.47;;;11.27;;
2049;SDS011;8478;49.208;8.806;2024-01-07T01:16:47;11.80;;;10.60;;
2049;SDS011;8478;49.208;8.806;2024-01-07T01:19:12;13.00;;;11.80;;
2049;SDS011;8478;49.208;8.806;2024-01-07T01:21:38;12.37;;;11.20;;
2049;SDS011;8478;49.208;8.806;2024-01-07T01:24:04;10.87;;;9.87;;
2049;SDS011;8478;49.208;8.806;2024-01-07T01:26:29;12.00;;;10.77;;
2049;SDS011;8478;49.208;8.806;2024-01-07T01:28:55;11.47;;;10.47;;
2049;SDS011;8478;49.208;8.806;2024-01-07T01:31:21;10.17;;;9.30;;
2049;SDS011;8478;49.208;8.806;2024-01-07T01:33:46;15.40;;;11.50;;
2049;SDS011;8478;49.208;8.806;2024-01-07T01:36:12;11.97;;;10.80;;
2049;SDS011;8478;49.208;8.806;2024-01-07T01:38:38;11.50;;;10.30;;
2049;SDS011;8478;49.208;8.806;2024-01-07T01:41:03;14.00;;;11.33;;
2049;SDS011;8478;49.208;8.806;2024-01-07T01:43:29;13.50;;;12.30;;
2049;SDS011;8478;49.208;8.806;2024-01-07T01:45:55;13.73;;;12.17;;
2049;SDS011;8478;49.208;8.806;2024-01-07T01:48:22;11.80;;;10.77;;
2049;SDS011;8478;49.208;8.806;2024-01-07T01:50:49;13.97;;;11.83;;
2049;SDS011;8478;49.208;8.806;2024-01-07T01:53:15;12.50;;;11.30;;
2049;SDS011;8478;49.208;8.806;2024-01-07T01:55:41;11.87;;;10.67;;
2049;SDS011;8478;49.208;8.806;2024-01-07T01:58:08;12.43;;;11.23;;
2049;SDS011;8478;49.208;8.806;2024-01-07T02:00:35;13.63;;;11.80;;
2049;SDS011;8478;49.208;8.806;2024-01-07T02:03:00;11.10;;;10.10;;
2049;SDS011;8478;49.208;8.806;2024-01-07T02:05:27;13.13;;;11.83;;
2049;SDS011;8478;49.208;8.806;2024-01-07T02:07:53;12.67;;;11.57;;
2049;SDS011;8478;49.208;8.806;2024-01-07T02:10:21;12.10;;;11.00;;
2049;SDS011;8478;49.208;8.806;2024-01-07T02:12:47;12.60;;;11.40;;
2049;SDS011;8478;49.208;8.806;2024-01-07T02:15:13;11.73;;;10.50;;
2049;SDS011;8478;49.208;8.806;2024-01-07T02:17:40;12.73;;;11.43;;
2049;SDS011;8478;49.208;8.806;2024-01-07T02:20:06;13.43;;;10.73;;
2049;SDS011;8478;49.208;8.806;2024-01-07T02:22:32;12.33;;;11.13;;
2049;SDS011;8478;49.208;8.806;2024-01-07T02:24:57;12.93;;;11.47;;
2049;SDS011;8478;49.208;8.806;2024-01-07T02:27:23;12.17;;;11.00;;
2049;SDS011;8478;49.208;8.806;2024-01-07T02:29:49;14.37;;;10.40;;
2049;SDS011;8478;49.208;8.806;2024-01-07T02:32:14;12.40;;;11.07;;
2049;SDS011;8478;49.208;8.806;2024-01-07T02:34:40;12.50;;;10.40;;
2049;SDS011;8478;49.208;8.806;2024-01-07T02:37:06;12.23;;;11.03;;
2049;SDS011;8478;49.208;8.806;2024-01-07T02:39:31;11.20;;;10.10;;
2049;SDS011;8478;49.208;8.806;2024-01-07T02:41:57;10.67;;;9.60;;
2049;SDS011;8478;49.208;8.806;2024-01-07T02:44:23;11.17;;;10.07;;
2049;SDS011;8478;49.208;8.806;2024-01-07T02:46:48;12.33;;;9.97;;
2049;SDS011;8478;49.208;8.806;2024-01-07T02:49:14;10.43;;;9.40;;
2049;SDS011;8478;49.208;8.806;2024-01-07T02:51:40;11.13;;;10.03;;
2049;SDS011;8478;49.208;8.806;2024-01-07T02:54:05;11.20;;;10.10;;
2049;SDS011;8478;49.208;8.806;2024-01-07T02:56:31;10.67;;;9.57;;
2049;SDS011;8478;49.208;8.806;2024-01-07T02:58:57;11.10;;;10.00;;
2049;SDS011;8478;49.208;8.806;2024-01-07T03:01:22;9.67;;;8.77;;
2049;SDS011;8478;49.208;8.806;2024-01-07T03:03:48;10.17;;;9.17;;
2049;SDS011;8478;49.208;8.806;2024-01-07T03:06:15;10.13;;;9.13;;
2049;SDS011;8478;49.208;8.806;2024-01-07T03:08:41;9.90;;;9.00;;
2049;SDS011;8478;49.208;8.806;2024-01-07T03:11:08;10.00;;;9.00;;
2049;SDS011;8478;49.208;8.806;2024-01-07T03:13:33;10.97;;;9.97;;
2049;SDS011;8478;49.208;8.806;2024-01-07T03:15:59;10.73;;;9.67;;
2049;SDS011;8478;49.208;8.806;2024-01-07T03:18:26;9.50;;;8.60;;
2049;SDS011;8478;49.208;8.806;2024-01-07T03:20:52;9.80;;;8.83;;
2049;SDS011;8478;49.208;8.806;2024-01-07T03:23:18;9.77;;;8.77;;
2049;SDS011;8478;49.208;8.806;2024-01-07T03:25:44;9.60;;;8.73;;
2049;SDS011;8478;49.208;8.806;2024-01-07T03:28:09;8.73;;;8.00;;
2049;SDS011;8478;49.208;8.806;2024-01-07T03:30:35;8.73;;;7.93;;
2049;SDS011;8478;49.208;8.806;2024-01-07T03:33:00;9.00;;;8.23;;
2049;SDS011;8478;49.208;8.806;2024-01-07T03:35:27;8.47;;;7.53;;
2049;SDS011;8478;49.208;8.806;2024-01-07T03:37:52;8.77;;;7.93;;
2049;SDS011;8478;49.208;8.806;2024-01-07T03:40:18;8.60;;;7.90;;
2049;SDS011;8478;49.208;8.806;2024-01-07T03:42:44;8.87;;;8.00;;
2049;SDS011;8478;49.208;8.806;2024-01-07T03:45:09;9.17;;;8.27;;
2049;SDS011;8478;49.208;8.806;2024-01-07T03:47:35;7.97;;;7.17;;
2049;SDS011;8478;49.208;8.806;2024-01-07T03:50:01;6.90;;;6.30;;
2049;SDS011;8478;49.208;8.806;2024-01-07T03:52:26;7.80;;;7.00;;
2049;SDS011;8478;49.208;8.806;2024-01-07T03:54:53;7.57;;;6.77;;
2049;SDS011;8478;49.208;8.806;2024-01-07T03:57:19;7.53;;;6.83;;
2049;SDS011;8478;49.208;8.806;2024-01-07T03:59:44;7.37;;;6.73;;
2049;SDS011;8478;49.208;8.806;2024-01-07T04:02:10;7.00;;;6.40;;
2049;SDS011;8478;49.208;8.806;2024-01-07T04:04:37;7.07;;;6.40;;
2049;SDS011;8478;49.208;8.806;2024-01-07T04:07:02;6.60;;;5.97;;
2049;SDS011;8478;49.208;8.806;2024-01-07T04:09:28;6.53;;;5.93;;
2049;SDS011;8478;49.208;8.806;2024-01-07T04:11:54;7.50;;;6.80;;
2049;SDS011;8478;49.208;8.806;2024-01-07T04:14:19;6.87;;;6.27;;
2049;SDS011;8478;49.208;8.806;2024-01-07T04:16:45;6.40;;;5.90;;
2049;SDS011;8478;49.208;8.806;2024-01-07T04:19:11;6.80;;;6.20;;
2049;SDS011;8478;49.208;8.806;2024-01-07T04:21:36;6.03;;;5.43;;
2049;SDS011;8478;49.208;8.806;2024-01-07T04:24:02;6.43;;;5.93;;
2049;SDS011;8478;49.208;8.806;2024-01-07T04:26:28;6.03;;;5.50;;
2049;SDS011;8478;49.208;8.806;2024-01-07T04:28:53;6.07;;;5.57;;
2049;SDS011;8478;49.208;8.806;2024-01-07T04:31:19;6.20;;;5.60;;
2049;SDS011;8478;49.208;8.806;2024-01-07T04:33:45;6.33;;;5.80;;
2049;SDS011;8478;49.208;8.806;2024-01-07T04:36:10;6.07;;;5.57;;
2049;SDS011;8478;49.208;8.806;2024-01-07T04:38:36;6.30;;;4.53;;
2049;SDS011;8478;49.208;8.806;2024-01-07T04:41:01;6.57;;;5.97;;
2049;SDS011;8478;49.208;8.806;2024-01-07T04:43:27;5.23;;;4.80;;
2049;SDS011;8478;49.208;8.806;2024-01-07T04:45:53;5.50;;;5.00;;
2049;SDS011;8478;49.208;8.806;2024-01-07T04:48:18;5.33;;;4.83;;
2049;SDS011;8478;49.208;8.806;2024-01-07T04:50:44;5.40;;;4.87;;
2049;SDS011;8478;49.208;8.806;2024-01-07T04:53:10;5.77;;;5.23;;
2049;SDS011;8478;49.208;8.806;2024-01-07T04:55:36;5.40;;;4.90;;
2049;SDS011;8478;49.208;8.806;2024-01-07T04:58:01;5.57;;;5.07;;
2049;SDS011;8478;49.208;8.806;2024-01-07T05:00:29;5.20;;;4.70;;
2049;SDS011;8478;49.208;8.806;2024-01-07T05:02:55;5.93;;;5.43;;
2049;SDS011;8478;49.208;8.806;2024-01-07T05:05:21;5.27;;;4.83;;
2049;SDS011;8478;49.208;8.806;2024-01-07T05:07:46;5.43;;;5.03;;
2049;SDS011;8478;49.208;8.806;2024-01-07T05:10:12;6.03;;;5.53;;
2049;SDS011;8478;49.208;8.806;2024-01-07T05:12:38;5.90;;;5.40;;
2049;SDS011;8478;49.208;8.806;2024-01-07T05:15:04;5.57;;;5.07;;
2049;SDS011;8478;49.208;8.806;2024-01-07T05:17:31;5.63;;;5.13;;
2049;SDS011;8478;49.208;8.806;2024-01-07T05:19:56;5.17;;;4.70;;
2049;SDS011;8478;49.208;8.806;2024-01-07T05:22:22;5.70;;;5.20;;
2049;SDS011;8478;49.208;8.806;2024-01-07T05:24:47;6.40;;;5.80;;
2049;SDS011;8478;49.208;8.806;2024-01-07T05:27:13;6.03;;;5.43;;
2049;SDS011;8478;49.208;8.806;2024-01-07T05:29:39;5.23;;;4.83;;
2049;SDS011;8478;49.208;8.806;2024-01-07T05:32:05;5.07;;;4.67;;
2049;SDS011;8478;49.208;8.806;2024-01-07T05:34:31;5.40;;;4.90;;
2049;SDS011;8478;49.208;8.806;2024-01-07T05:36:57;5.20;;;4.70;;
2049;SDS011;8478;49.208;8.806;2024-01-07T05:39:22;6.10;;;5.50;;
2049;SDS011;8478;49.208;8.806;2024-01-07T05:41:48;6.27;;;5.77;;
2049;SDS011;8478;49.208;8.806;2024-01-07T05:44:14;5.73;;;5.23;;
2049;SDS011;8478;49.208;8.806;2024-01-07T05:46:39;6.40;;;5.80;;
2049;SDS011;8478;49.208;8.806;2024-01-07T05:49:05;5.60;;;5.10;;
2049;SDS011;8478;49.208;8.806;2024-01-07T05:51:31;6.00;;;5.40;;
2049;SDS011;8478;49.208;8.806;2024-01-07T05:53:57;6.50;;;5.90;;
2049;SDS011;8478;49.208;8.806;2024-01-07T05:56:23;7.20;;;6.60;;
2049;SDS011;8478;49.208;8.806;2024-01-07T05:58:48;6.07;;;5.53;;
2049;SDS011;8478;49.208;8.806;2024-01-07T06:01:21;6.37;;;5.87;;
2049;SDS011;8478;49.208;8.806;2024-01-07T06:03:47;7.40;;;6.70;;
2049;SDS011;8478;49.208;8.806;2024-01-07T06:06:13;7.03;;;6.43;;
2049;SDS011;8478;49.208;8.806;2024-01-07T06:08:40;7.63;;;7.00;;
2049;SDS011;8478;49.208;8.806;2024-01-07T06:11:09;6.70;;;6.00;;
2049;SDS011;8478;49.208;8.806;2024-01-07T06:13:37;6.43;;;5.93;;
2049;SDS011;8478;49.208;8.806;2024-01-07T06:16:02;7.30;;;6.57;;
2049;SDS011;8478;49.208;8.806;2024-01-07T06:18:29;6.80;;;6.20;;
2049;SDS011;8478;49.208;8.806;2024-01-07T06:20:54;6.17;;;5.67;;
2049;SDS011;8478;49.208;8.806;2024-01-07T06:23:20;5.87;;;5.37;;
2049;SDS011;8478;49.208;8.806;2024-01-07T06:25:45;6.83;;;6.17;;
2049;SDS011;8478;49.208;8.806;2024-01-07T06:28:11;6.43;;;5.83;;
2049;SDS011;8478;49.208;8.806;2024-01-07T06:30:37;7.17;;;6.60;;
2049;SDS011;8478;49.208;8.806;2024-01-07T06:33:02;6.83;;;6.20;;
2049;SDS011;8478;49.208;8.806;2024-01-07T06:35:28;7.23;;;6.63;;
2049;SDS011;8478;49.208;8.806;2024-01-07T06:37:55;6.50;;;5.90;;
2049;SDS011;8478;49.208;8.806;2024-01-07T06:40:21;7.30;;;6.70;;
2049;SDS011;8478;49.208;8.806;2024-01-07T06:42:47;6.37;;;5.87;;
2049;SDS011;8478;49.208;8.806;2024-01-07T06:45:14;6.80;;;6.30;;
2049;SDS011;8478;49.208;8.806;2024-01-07T06:47:41;6.40;;;5.90;;
2049;SDS011;8478;49.208;8.806;2024-01-07T06:50:07;7.90;;;7.20;;
2049;SDS011;8478;49.208;8.806;2024-01-07T06:52:34;6.10;;;5.40;;
2049;SDS011;8478;49.208;8.806;2024-01-07T06:54:59;6.97;;;6.37;;
2049;SDS011;8478;49.208;8.806;2024-01-07T06:57:26;6.83;;;6.23;;
2049;SDS011;8478;49.208;8.806;2024-01-07T06:59:51;7.00;;;6.40;;
2049;SDS011;8478;49.208;8.806;2024-01-07T07:02:17;7.00;;;6.40;;
2049;SDS011;8478;49.208;8.806;2024-01-07T07:04:45;7.47;;;6.83;;
2049;SDS011;8478;49.208;8.806;2024-01-07T07:07:10;6.10;;;5.63;;
2049;SDS011;8478;49.208;8.806;2024-01-07T07:09:36;6.67;;;6.17;;
2049;SDS011;8478;49.208;8.806;2024-01-07T07:12:02;6.67;;;6.13;;
2049;SDS011;8478;49.208;8.806;2024-01-07T07:14:27;7.07;;;6.43;;
2049;SDS011;8478;49.208;8.806;2024-01-07T07:16:53;7.47;;;6.70;;
2049;SDS011;8478;49.208;8.806;2024-01-07T07:19:19;7.30;;;6.73;;
2049;SDS011;8478;49.208;8.806;2024-01-07T07:21:44;7.50;;;6.80;;
2049;SDS011;8478;49.208;8.806;2024-01-07T07:24:10;7.37;;;6.77;;
2049;SDS011;8478;49.208;8.806;2024-01-07T07:26:36;7.10;;;6.50;;
2049;SDS011;8478;49.208;8.806;2024-01-07T07:29:05;7.07;;;6.57;;
2049;SDS011;8478;49.208;8.806;2024-01-07T07:31:37;7.70;;;6.90;;
2049;SDS011;8478;49.208;8.806;2024-01-07T07:34:08;7.43;;;6.83;;
2049;SDS011;8478;49.208;8.806;2024-01-07T07:36:34;7.00;;;6.40;;
2049;SDS011;8478;49.208;8.806;2024-01-07T07:39:00;6.83;;;6.33;;
2049;SDS011;8478;49.208;8.806;2024-01-07T07:41:26;7.40;;;6.70;;
2049;SDS011;8478;49.208;8.806;2024-01-07T07:43:51;7.13;;;6.53;;
2049;SDS011;8478;49.208;8.806;2024-01-07T07:46:17;7.13;;;6.53;;
2049;SDS011;8478;49.208;8.806;2024-01-07T07:48:43;6.90;;;6.40;;
2049;SDS011;8478;49.208;8.806;2024-01-07T07:51:08;7.40;;;6.70;;
2049;SDS011;8478;49.208;8.806;2024-01-07T07:53:34;7.40;;;6.70;;
2049;SDS011;8478;49.208;8.806;2024-01-07T07:56:03;7.13;;;6.60;;
2049;SDS011;8478;49.208;8.806;2024-01-07T07:58:29;8.47;;;7.73;;
2049;SDS011;8478;49.208;8.806;2024-01-07T08:00:55;8.50;;;7.80;;
2049;SDS011;8478;49.208;8.806;2024-01-07T08:03:21;8.47;;;7.77;;
2049;SDS011;8478;49.208;8.806;2024-01-07T08:05:46;8.37;;;7.67;;
2049;SDS011;8478;49.208;8.806;2024-01-07T08:08:12;8.80;;;8.10;;
2049;SDS011;8478;49.208;8.806;2024-01-07T08:10:37;8.70;;;7.90;;
2049;SDS011;8478;49.208;8.806;2024-01-07T08:13:03;8.23;;;7.53;;
2049;SDS011;8478;49.208;8.806;2024-01-07T08:15:29;9.23;;;8.53;;
2049;SDS011;8478;49.208;8.806;2024-01-07T08:17:54;9.10;;;8.30;;
2049;SDS011;8478;49.208;8.806;2024-01-07T08:20:20;7.83;;;7.23;;
2049;SDS011;8478;49.208;8.806;2024-01-07T08:22:46;7.63;;;7.03;;
2049;SDS011;8478;49.208;8.806;2024-01-07T08:25:11;8.13;;;7.43;;
2049;SDS011;8478;49.208;8.806;2024-01-07T08:27:38;8.63;;;7.93;;
2049;SDS011;8478;49.208;8.806;2024-01-07T08:30:06;8.43;;;7.73;;
2049;SDS011;8478;49.208;8.806;2024-01-07T08:32:32;8.50;;;7.60;;
2049;SDS011;8478;49.208;8.806;2024-01-07T08:34:57;8.63;;;7.93;;
2049;SDS011;8478;49.208;8.806;2024-01-07T08:37:24;7.87;;;7.07;;
2049;SDS011;8478;49.208;8.806;2024-01-07T08:39:49;8.93;;;8.13;;
2049;SDS011;8478;49.208;8.806;2024-01-07T08:42:15;8.23;;;7.57;;
2049;SDS011;8478;49.208;8.806;2024-01-07T08:44:41;8.43;;;7.77;;
2049;SDS011;8478;49.208;8.806;2024-01-07T08:47:07;8.50;;;7.80;;
2049;SDS011;8478;49.208;8.806;2024-01-07T08:49:32;8.33;;;7.63;;
2049;SDS011;8478;49.208;8.806;2024-01-07T08:51:58;8.03;;;7.33;;
2049;SDS011;8478;49.208;8.806;2024-01-07T08:54:24;7.97;;;7.30;;
2049;SDS011;8478;49.208;8.806;2024-01-07T08:56:50;7.83;;;7.23;;
2049;SDS011;8478;49.208;8.806;2024-01-07T08:59:16;8.03;;;7.33;;
2049;SDS011;8478;49.208;8.806;2024-01-07T09:01:41;7.70;;;7.00;;
2049;SDS011;8478;49.208;8.806;2024-01-07T09:04:07;9.37;;;8.47;;
2049;SDS011;8478;49.208;8.806;2024-01-07T09:06:33;8.50;;;7.80;;
2049;SDS011;8478;49.208;8.806;2024-01-07T09:08:58;7.80;;;7.03;;
2049;SDS011;8478;49.208;8.806;2024-01-07T09:11:24;6.77;;;6.17;;
2049;SDS011;8478;49.208;8.806;2024-01-07T09:13:50;8.87;;;8.07;;
2049;SDS011;8478;49.208;8.806;2024-01-07T09:16:16;8.47;;;7.67;;
2049;SDS011;8478;49.208;8.806;2024-01-07T09:18:42;7.60;;;7.00;;
2049;SDS011;8478;49.208;8.806;2024-01-07T09:21:10;8.13;;;7.43;;
2049;SDS011;8478;49.208;8.806;2024-01-07T09:23:37;6.90;;;6.40;;
2049;SDS011;8478;49.208;8.806;2024-01-07T09:26:03;7.57;;;6.97;;
2049;SDS011;8478;49.208;8.806;2024-01-07T09:28:28;6.97;;;6.37;;
2049;SDS011;8478;49.208;8.806;2024-01-07T09:30:54;7.50;;;6.80;;
2049;SDS011;8478;49.208;8.806;2024-01-07T09:33:20;7.70;;;7.10;;
2049;SDS011;8478;49.208;8.806;2024-01-07T09:35:48;7.73;;;7.00;;
2049;SDS011;8478;49.208;8.806;2024-01-07T09:38:16;8.33;;;7.57;;
2049;SDS011;8478;49.208;8.806;2024-01-07T09:40:42;8.27;;;7.50;;
2049;SDS011;8478;49.208;8.806;2024-01-07T09:43:08;7.13;;;6.53;;
2049;SDS011;8478;49.208;8.806;2024-01-07T09:45:36;7.13;;;6.53;;
2049;SDS011;8478;49.208;8.806;2024-01-07T09:48:04;7.50;;;6.80;;
2049;SDS011;8478;49.208;8.806;2024-01-07T09:50:30;7.67;;;7.03;;
2049;SDS011;8478;49.208;8.806;2024-01-07T09:52:56;7.87;;;7.03;;
2049;SDS011;8478;49.208;8.806;2024-01-07T09:55:40;6.27;;;5.77;;
2049;SDS011;8478;49.208;8.806;2024-01-07T09:58:21;6.83;;;6.27;;
2049;SDS011;8478;49.208;8.806;2024-01-07T10:00:47;6.93;;;6.33;;
2049;SDS011;8478;49.208;8.806;2024-01-07T10:03:12;7.17;;;6.57;;
2049;SDS011;8478;49.208;8.806;2024-01-07T10:05:39;7.50;;;6.90;;
2049;SDS011;8478;49.208;8.806;2024-01-07T10:08:04;6.83;;;6.23;;
2049;SDS011;8478;49.208;8.806;2024-01-07T10:10:31;8.20;;;7.47;;
2049;SDS011;8478;49.208;8.806;2024-01-07T10:12:57;6.63;;;6.07;;
2049;SDS011;8478;49.208;8.806;2024-01-07T10:15:23;7.17;;;6.57;;
2049;SDS011;8478;49.208;8.806;2024-01-07T10:17:48;6.20;;;5.60;;
2049;SDS011;8478;49.208;8.806;2024-01-07T10:20:15;6.53;;;6.03;;
2049;SDS011;8478;49.208;8.806;2024-01-07T10:22:45;7.10;;;6.50;;
2049;SDS011;8478;49.208;8.806;2024-01-07T10:25:14;6.57;;;6.07;;
2049;SDS011;8478;49.208;8.806;2024-01-07T10:27:40;6.10;;;5.60;;
2049;SDS011;8478;49.208;8.806;2024-01-07T10:30:06;6.07;;;5.50;;
2049;SDS011;8478;49.208;8.806;2024-01-07T10:32:35;5.80;;;5.30;;
2049;SDS011;8478;49.208;8.806;2024-01-07T10:35:02;5.83;;;5.43;;
2049;SDS011;8478;49.208;8.806;2024-01-07T10:37:30;6.13;;;5.63;;
2049;SDS011;8478;49.208;8.806;2024-01-07T10:39:57;6.20;;;5.70;;
2049;SDS011;8478;49.208;8.806;2024-01-07T10:42:29;5.67;;;5.27;;
2049;SDS011;8478;49.208;8.806;2024-01-07T10:44:56;5.83;;;5.33;;
2049;SDS011;8478;49.208;8.806;2024-01-07T10:47:22;5.83;;;5.40;;
2049;SDS011;8478;49.208;8.806;2024-01-07T10:49:51;6.50;;;6.00;;
2049;SDS011;8478;49.208;8.806;2024-01-07T10:52:20;5.97;;;5.47;;
2049;SDS011;8478;49.208;8.806;2024-01-07T10:54:46;6.87;;;6.27;;
2049;SDS011;8478;49.208;8.806;2024-01-07T10:57:15;6.60;;;6.10;;
2049;SDS011;8478;49.208;8.806;2024-01-07T10:59:54;7.00;;;6.50;;
2049;SDS011;8478;49.208;8.806;2024-01-07T11:02:22;6.07;;;5.67;;
2049;SDS011;8478;49.208;8.806;2024-01-07T11:04:56;7.47;;;6.77;;
2049;SDS011;8478;49.208;8.806;2024-01-07T11:07:34;6.10;;;5.60;;
2049;SDS011;8478;49.208;8.806;2024-01-07T11:10:07;5.97;;;5.57;;
2049;SDS011;8478;49.208;8.806;2024-01-07T11:12:34;6.37;;;5.77;;
2049;SDS011;8478;49.208;8.806;2024-01-07T11:15:00;6.30;;;5.87;;
2049;SDS011;8478;49.208;8.806;2024-01-07T11:19:59;6.43;;;5.93;;
2049;SDS011;8478;49.208;8.806;2024-01-07T11:22:25;7.13;;;6.63;;
2049;SDS011;8478;49.208;8.806;2024-01-07T11:24:55;7.00;;;6.40;;
2049;SDS011;8478;49.208;8.806;2024-01-07T11:27:26;7.47;;;6.87;;
2049;SDS011;8478;49.208;8.806;2024-01-07T11:30:01;6.60;;;6.10;;
2049;SDS011;8478;49.208;8.806;2024-01-07T11:32:32;8.23;;;7.43;;
2049;SDS011;8478;49.208;8.806;2024-01-07T11:35:00;7.57;;;6.80;;
2049;SDS011;8478;49.208;8.806;2024-01-07T11:37:27;7.27;;;6.60;;
2049;SDS011;8478;49.208;8.806;2024-01-07T11:39:56;6.97;;;6.43;;
2049;SDS011;8478;49.208;8.806;2024-01-07T11:42:23;7.57;;;6.80;;
2049;SDS011;8478;49.208;8.806;2024-01-07T11:44:55;7.10;;;6.60;;
2049;SDS011;8478;49.208;8.806;2024-01-07T11:47:22;7.50;;;6.90;;
2049;SDS011;8478;49.208;8.806;2024-01-07T11:49:48;6.50;;;6.00;;
2049;SDS011;8478;49.208;8.806;2024-01-07T11:52:14;6.17;;;5.67;;
2049;SDS011;8478;49.208;8.806;2024-01-07T11:54:40;8.30;;;7.00;;
2049;SDS011;8478;49.208;8.806;2024-01-07T11:57:07;6.97;;;6.47;;
2049;SDS011;8478;49.208;8.806;2024-01-07T11:59:36;7.33;;;6.73;;
2049;SDS011;8478;49.208;8.806;2024-01-07T12:02:02;7.27;;;6.70;;
2049;SDS011;8478;49.208;8.806;2024-01-07T12:04:32;6.80;;;6.30;;
2049;SDS011;8478;49.208;8.806;2024-01-07T12:06:58;7.33;;;6.73;;
2049;SDS011;8478;49.208;8.806;2024-01-07T12:09:24;6.77;;;6.13;;
2049;SDS011;8478;49.208;8.806;2024-01-07T12:11:50;7.50;;;7.00;;
2049;SDS011;8478;49.208;8.806;2024-01-07T12:14:17;7.47;;;6.97;;
2049;SDS011;8478;49.208;8.806;2024-01-07T12:16:44;7.63;;;6.93;;
2049;SDS011;8478;49.208;8.806;2024-01-07T12:19:10;7.00;;;6.40;;
2049;SDS011;8478;49.208;8.806;2024-01-07T12:21:36;7.17;;;6.67;;
2049;SDS011;8478;49.208;8.806;2024-01-07T12:24:03;6.53;;;6.03;;
2049;SDS011;8478;49.208;8.806;2024-01-07T12:26:29;8.20;;;7.63;;
2049;SDS011;8478;49.208;8.806;2024-01-07T12:28:57;8.27;;;7.57;;
2049;SDS011;8478;49.208;8.806;2024-01-07T12:31:33;7.90;;;7.30;;
2049;SDS011;8478;49.208;8.806;2024-01-07T12:33:59;7.37;;;6.77;;
2049;SDS011;8478;49.208;8.806;2024-01-07T12:36:27;8.70;;;7.90;;
2049;SDS011;8478;49.208;8.806;2024-01-07T12:38:55;7.53;;;7.03;;
2049;SDS011;8478;49.208;8.806;2024-01-07T12:41:21;7.67;;;7.07;;
2049;SDS011;8478;49.208;8.806;2024-01-07T12:43:47;7.80;;;7.10;;
2049;SDS011;8478;49.208;8.806;2024-01-07T12:46:13;7.37;;;6.87;;
2049;SDS011;8478;49.208;8.806;2024-01-07T12:48:39;7.87;;;7.20;;
2049;SDS011;8478;49.208;8.806;2024-01-07T12:51:05;8.40;;;7.60;;
2049;SDS011;8478;49.208;8.806;2024-01-07T12:53:31;9.00;;;8.30;;
2049;SDS011;8478;49.208;8.806;2024-01-07T12:55:57;8.67;;;7.97;;
2049;SDS011;8478;49.208;8.806;2024-01-07T12:58:22;8.13;;;7.43;;
2049;SDS011;8478;49.208;8.806;2024-01-07T13:00:48;8.30;;;7.60;;
2049;SDS011;8478;49.208;8.806;2024-01-07T13:03:14;9.00;;;8.23;;
2049;SDS011;8478;49.208;8.806;2024-01-07T13:05:46;9.40;;;8.60;;
2049;SDS011;8478;49.208;8.806;2024-01-07T13:08:15;9.03;;;8.33;;
2049;SDS011;8478;49.208;8.806;2024-01-07T13:10:43;8.80;;;8.10;;
2049;SDS011;8478;49.208;8.806;2024-01-07T13:13:09;9.20;;;8.40;;
2049;SDS011;8478;49.208;8.806;2024-01-07T13:15:37;8.40;;;7.70;;
2049;SDS011;8478;49.208;8.806;2024-01-07T13:18:03;8.10;;;7.40;;
2049;SDS011;8478;49.208;8.806;2024-01-07T13:20:29;8.90;;;8.20;;
2049;SDS011;8478;49.208;8.806;2024-01-07T13:22:54;9.70;;;8.80;;
2049;SDS011;8478;49.208;8.806;2024-01-07T13:25:20;8.40;;;7.80;;
2049;SDS011;8478;49.208;8.806;2024-01-07T13:27:46;9.17;;;8.37;;
2049;SDS011;8478;49.208;8.806;2024-01-07T13:30:12;8.57;;;7.87;;
2049;SDS011;8478;49.208;8.806;2024-01-07T13:32:37;7.60;;;6.90;;
2049;SDS011;8478;49.208;8.806;2024-01-07T13:35:03;8.00;;;7.40;;
2049;SDS011;8478;49.208;8.806;2024-01-07T13:37:30;7.60;;;7.10;;
2049;SDS011;8478;49.208;8.806;2024-01-07T13:39:56;8.23;;;7.43;;
2049;SDS011;8478;49.208;8.806;2024-01-07T13:42:22;8.50;;;7.70;;
2049;SDS011;8478;49.208;8.806;2024-01-07T13:44:47;8.70;;;7.67;;
2049;SDS011;8478;49.208;8.806;2024-01-07T13:47:13;8.83;;;8.17;;
2049;SDS011;8478;49.208;8.806;2024-01-07T13:49:42;9.63;;;8.83;;
2049;SDS011;8478;49.208;8.806;2024-01-07T13:52:09;8.43;;;7.70;;
2049;SDS011;8478;49.208;8.806;2024-01-07T13:54:36;8.73;;;8.03;;
2049;SDS011;8478;49.208;8.806;2024-01-07T13:57:02;8.40;;;7.70;;
2049;SDS011;8478;49.208;8.806;2024-01-07T13:59:29;11.00;;;10.10;;
2049;SDS011;8478;49.208;8.806;2024-01-07T14:01:54;16.50;;;14.70;;
2049;SDS011;8478;49.208;8.806;2024-01-07T14:04:22;13.83;;;12.47;;
2049;SDS011;8478;49.208;8.806;2024-01-07T14:06:53;14.20;;;11.60;;
2049;SDS011;8478;49.208;8.806;2024-01-07T14:09:22;15.43;;;12.57;;
2049;SDS011;8478;49.208;8.806;2024-01-07T14:11:48;12.77;;;11.63;;
2049;SDS011;8478;49.208;8.806;2024-01-07T14:14:13;12.03;;;10.83;;
2049;SDS011;8478;49.208;8.806;2024-01-07T14:16:39;13.07;;;11.80;;
2049;SDS011;8478;49.208;8.806;2024-01-07T14:19:05;12.97;;;11.77;;
2049;SDS011;8478;49.208;8.806;2024-01-07T14:21:31;10.93;;;9.93;;
2049;SDS011;8478;49.208;8.806;2024-01-07T14:23:57;12.30;;;11.10;;
2049;SDS011;8478;49.208;8.806;2024-01-07T14:26:23;11.97;;;10.73;;
2049;SDS011;8478;49.208;8.806;2024-01-07T14:28:49;10.93;;;9.90;;
2049;SDS011;8478;49.208;8.806;2024-01-07T14:31:18;9.60;;;8.70;;
2049;SDS011;8478;49.208;8.806;2024-01-07T14:33:44;12.27;;;11.10;;
2049;SDS011;8478;49.208;8.806;2024-01-07T14:36:10;10.17;;;9.00;;
2049;SDS011;8478;49.208;8.806;2024-01-07T14:38:45;10.10;;;9.13;;
2049;SDS011;8478;49.208;8.806;2024-01-07T14:41:13;11.20;;;10.13;;
2049;SDS011;8478;49.208;8.806;2024-01-07T14:43:39;10.73;;;9.70;;
2049;SDS011;8478;49.208;8.806;2024-01-07T14:46:08;10.27;;;9.37;;
2049;SDS011;8478;49.208;8.806;2024-01-07T14:48:35;10.57;;;9.47;;
2049;SDS011;8478;49.208;8.806;2024-01-07T14:51:01;10.37;;;9.47;;
2049;SDS011;8478;49.208;8.806;2024-01-07T14:53:27;11.90;;;10.73;;
2049;SDS011;8478;49.208;8.806;2024-01-07T14:55:54;10.23;;;9.23;;
2049;SDS011;8478;49.208;8.806;2024-01-07T14:58:20;12.13;;;11.03;;
2049;SDS011;8478;49.208;8.806;2024-01-07T15:00:47;12.13;;;10.83;;
2049;SDS011;8478;49.208;8.806;2024-01-07T15:03:13;10.77;;;9.77;;
2049;SDS011;8478;49.208;8.806;2024-01-07T15:05:39;10.80;;;9.90;;
2049;SDS011;8478;49.208;8.806;2024-01-07T15:08:06;10.93;;;9.93;;